首页
METAR-TAF:

METAR-TAF

机场 :

Sakon Nakhon, 泰国

纬度: 17-11-42N, 经度: 104-07-08E, 海拔: 161米

当前天气观测

该预报发布于1小时和0分钟前的12:00 UTC
风速2节,风向多变
温度 29°C
湿度 84%
气压 1004 hPa
能见度10公里或以上
1500米以下无云,无积雨云

METAR: VTUI 171200Z VRB02KT CAVOK 29/26 Q1004 NOSIG

时间: 20:00 (13:00 UTC)

预报

该预报发布于2小时和0分钟前的11:00 UTC
预报有效从17日的 12点(UTC)到 18日的 12点(UTC)
风速5节,风向南转西南
能見度: 9000
散云层高于3000英尺
短暂存在
从 17日的 12点(UTC)到 17日的 16点(UTC)
风速15节,风向多变
少量云层高于1800英尺, 积雨云.
多云层高于2500英尺
雷暴, 小雨,

TAF: VTUI 171100Z 1712/1812 20005KT 9000 SCT030 TEMPO 1712/1716 VRB15KT -TSRA FEW018CB BKN025

超过4000个机场的气象观测和天气预报(METAR&TAF报告)。

可查询的气象台以黄色和红色小点在地图上表示。

将鼠标移到小点上方,可查看气象台名称。

然后点击查看天气观测和预报。

如需切换地图:点击带黑十字的绿色按钮放大地图;点击带横线的绿色按钮缩小地图;或者点击绿色箭头查看邻近地区的地图。


METAR-TAF: